sensor_id;sensor_type;location;lat;lon;timestamp;P1;durP1;ratioP1;P2;durP2;ratioP2
69937;SDS011;57248;47.320;15.998;2023-07-02T00:00:55;9.02;;;4.40;;
69937;SDS011;57248;47.320;15.998;2023-07-02T00:03:27;8.20;;;4.25;;
69937;SDS011;57248;47.320;15.998;2023-07-02T00:06:01;12.27;;;5.30;;
69937;SDS011;57248;47.320;15.998;2023-07-02T00:08:33;9.95;;;4.82;;
69937;SDS011;57248;47.320;15.998;2023-07-02T00:10:59;13.90;;;5.00;;
69937;SDS011;57248;47.320;15.998;2023-07-02T00:13:30;9.68;;;4.63;;
69937;SDS011;57248;47.320;15.998;2023-07-02T00:16:02;9.60;;;4.00;;
69937;SDS011;57248;47.320;15.998;2023-07-02T00:18:34;12.93;;;4.95;;
69937;SDS011;57248;47.320;15.998;2023-07-02T00:21:06;11.10;;;5.20;;
69937;SDS011;57248;47.320;15.998;2023-07-02T00:23:38;12.23;;;5.27;;
69937;SDS011;57248;47.320;15.998;2023-07-02T00:26:10;8.98;;;5.18;;
69937;SDS011;57248;47.320;15.998;2023-07-02T00:28:42;9.95;;;3.88;;
69937;SDS011;57248;47.320;15.998;2023-07-02T00:31:14;9.45;;;4.50;;
69937;SDS011;57248;47.320;15.998;2023-07-02T00:33:46;9.23;;;4.25;;
69937;SDS011;57248;47.320;15.998;2023-07-02T00:36:13;8.53;;;4.20;;
69937;SDS011;57248;47.320;15.998;2023-07-02T00:38:48;11.23;;;3.95;;
69937;SDS011;57248;47.320;15.998;2023-07-02T00:41:20;12.25;;;5.40;;
69937;SDS011;57248;47.320;15.998;2023-07-02T00:43:52;10.93;;;5.47;;
69937;SDS011;57248;47.320;15.998;2023-07-02T00:46:25;10.77;;;4.90;;
69937;SDS011;57248;47.320;15.998;2023-07-02T00:48:57;9.90;;;4.77;;
69937;SDS011;57248;47.320;15.998;2023-07-02T00:51:38;10.63;;;5.45;;
69937;SDS011;57248;47.320;15.998;2023-07-02T00:54:10;11.07;;;6.20;;
69937;SDS011;57248;47.320;15.998;2023-07-02T00:56:42;11.63;;;5.50;;
69937;SDS011;57248;47.320;15.998;2023-07-02T00:59:14;11.20;;;5.13;;
69937;SDS011;57248;47.320;15.998;2023-07-02T01:01:46;10.37;;;5.63;;
69937;SDS011;57248;47.320;15.998;2023-07-02T01:04:21;10.70;;;6.32;;
69937;SDS011;57248;47.320;15.998;2023-07-02T01:06:58;11.57;;;6.18;;
69937;SDS011;57248;47.320;15.998;2023-07-02T01:09:30;12.88;;;6.30;;
69937;SDS011;57248;47.320;15.998;2023-07-02T01:12:06;11.70;;;5.72;;
69937;SDS011;57248;47.320;15.998;2023-07-02T01:14:44;12.60;;;5.80;;
69937;SDS011;57248;47.320;15.998;2023-07-02T01:17:24;15.27;;;6.05;;
69937;SDS011;57248;47.320;15.998;2023-07-02T01:19:56;10.88;;;5.38;;
69937;SDS011;57248;47.320;15.998;2023-07-02T01:22:31;12.82;;;5.72;;
69937;SDS011;57248;47.320;15.998;2023-07-02T01:25:04;9.30;;;4.90;;
69937;SDS011;57248;47.320;15.998;2023-07-02T01:27:37;9.93;;;5.23;;
69937;SDS011;57248;47.320;15.998;2023-07-02T01:30:09;14.73;;;6.22;;
69937;SDS011;57248;47.320;15.998;2023-07-02T01:32:42;10.63;;;5.90;;
69937;SDS011;57248;47.320;15.998;2023-07-02T01:35:15;12.75;;;5.68;;
69937;SDS011;57248;47.320;15.998;2023-07-02T01:37:47;11.43;;;5.85;;
69937;SDS011;57248;47.320;15.998;2023-07-02T01:40:19;12.40;;;5.80;;
69937;SDS011;57248;47.320;15.998;2023-07-02T01:42:52;12.30;;;6.38;;
69937;SDS011;57248;47.320;15.998;2023-07-02T01:45:24;13.35;;;5.97;;
69937;SDS011;57248;47.320;15.998;2023-07-02T01:47:56;13.10;;;5.95;;
69937;SDS011;57248;47.320;15.998;2023-07-02T01:50:28;14.60;;;5.55;;
69937;SDS011;57248;47.320;15.998;2023-07-02T01:53:07;10.60;;;5.40;;
69937;SDS011;57248;47.320;15.998;2023-07-02T01:55:39;15.85;;;6.10;;
69937;SDS011;57248;47.320;15.998;2023-07-02T01:58:05;13.03;;;5.90;;
69937;SDS011;57248;47.320;15.998;2023-07-02T02:00:36;11.67;;;6.83;;
69937;SDS011;57248;47.320;15.998;2023-07-02T02:03:08;10.90;;;5.68;;
69937;SDS011;57248;47.320;15.998;2023-07-02T02:05:40;12.85;;;6.47;;
69937;SDS011;57248;47.320;15.998;2023-07-02T02:08:12;11.52;;;5.90;;
69937;SDS011;57248;47.320;15.998;2023-07-02T02:10:44;17.27;;;6.82;;
69937;SDS011;57248;47.320;15.998;2023-07-02T02:13:16;11.70;;;5.63;;
69937;SDS011;57248;47.320;15.998;2023-07-02T02:15:48;11.65;;;6.25;;
69937;SDS011;57248;47.320;15.998;2023-07-02T02:18:14;13.53;;;6.43;;
69937;SDS011;57248;47.320;15.998;2023-07-02T02:20:45;13.82;;;6.13;;
69937;SDS011;57248;47.320;15.998;2023-07-02T02:23:17;11.57;;;6.07;;
69937;SDS011;57248;47.320;15.998;2023-07-02T02:25:49;13.85;;;6.05;;
69937;SDS011;57248;47.320;15.998;2023-07-02T02:28:21;11.43;;;6.53;;
69937;SDS011;57248;47.320;15.998;2023-07-02T02:30:56;13.40;;;6.70;;
69937;SDS011;57248;47.320;15.998;2023-07-02T02:33:29;17.38;;;6.88;;
69937;SDS011;57248;47.320;15.998;2023-07-02T02:36:03;11.50;;;6.00;;
69937;SDS011;57248;47.320;15.998;2023-07-02T02:38:35;9.80;;;5.78;;
69937;SDS011;57248;47.320;15.998;2023-07-02T02:41:09;15.70;;;6.32;;
69937;SDS011;57248;47.320;15.998;2023-07-02T02:43:46;20.57;;;7.53;;
69937;SDS011;57248;47.320;15.998;2023-07-02T02:46:19;14.32;;;6.55;;
69937;SDS011;57248;47.320;15.998;2023-07-02T02:48:53;10.93;;;6.70;;
69937;SDS011;57248;47.320;15.998;2023-07-02T02:51:32;11.30;;;6.45;;
69937;SDS011;57248;47.320;15.998;2023-07-02T02:54:04;13.55;;;6.20;;
69937;SDS011;57248;47.320;15.998;2023-07-02T02:56:36;12.10;;;6.40;;
69937;SDS011;57248;47.320;15.998;2023-07-02T02:59:08;12.90;;;6.32;;
69937;SDS011;57248;47.320;15.998;2023-07-02T03:01:40;12.25;;;6.00;;
69937;SDS011;57248;47.320;15.998;2023-07-02T03:04:12;12.18;;;5.80;;
69937;SDS011;57248;47.320;15.998;2023-07-02T03:06:44;13.40;;;6.25;;
69937;SDS011;57248;47.320;15.998;2023-07-02T03:09:17;12.33;;;6.27;;
69937;SDS011;57248;47.320;15.998;2023-07-02T03:11:50;11.38;;;5.95;;
69937;SDS011;57248;47.320;15.998;2023-07-02T03:14:16;14.13;;;6.32;;
69937;SDS011;57248;47.320;15.998;2023-07-02T03:16:48;11.83;;;6.07;;
69937;SDS011;57248;47.320;15.998;2023-07-02T03:19:20;11.38;;;5.47;;
69937;SDS011;57248;47.320;15.998;2023-07-02T03:21:52;11.20;;;6.05;;
69937;SDS011;57248;47.320;15.998;2023-07-02T03:24:24;11.32;;;5.90;;
69937;SDS011;57248;47.320;15.998;2023-07-02T03:26:56;12.50;;;5.65;;
69937;SDS011;57248;47.320;15.998;2023-07-02T03:29:28;11.70;;;5.20;;
69937;SDS011;57248;47.320;15.998;2023-07-02T03:32:01;12.32;;;5.00;;
69937;SDS011;57248;47.320;15.998;2023-07-02T03:34:33;12.20;;;5.60;;
69937;SDS011;57248;47.320;15.998;2023-07-02T03:37:07;9.15;;;5.28;;
69937;SDS011;57248;47.320;15.998;2023-07-02T03:39:39;11.40;;;5.43;;
69937;SDS011;57248;47.320;15.998;2023-07-02T03:42:11;10.33;;;4.90;;
69937;SDS011;57248;47.320;15.998;2023-07-02T03:44:43;9.32;;;5.10;;
69937;SDS011;57248;47.320;15.998;2023-07-02T03:47:09;11.37;;;5.60;;
69937;SDS011;57248;47.320;15.998;2023-07-02T03:49:41;14.45;;;5.38;;
69937;SDS011;57248;47.320;15.998;2023-07-02T03:52:13;9.18;;;4.88;;
69937;SDS011;57248;47.320;15.998;2023-07-02T03:54:52;11.43;;;5.03;;
69937;SDS011;57248;47.320;15.998;2023-07-02T03:57:24;11.80;;;5.43;;
69937;SDS011;57248;47.320;15.998;2023-07-02T03:59:57;9.60;;;4.70;;
69937;SDS011;57248;47.320;15.998;2023-07-02T04:02:39;12.35;;;5.25;;
69937;SDS011;57248;47.320;15.998;2023-07-02T04:05:11;10.93;;;5.13;;
69937;SDS011;57248;47.320;15.998;2023-07-02T04:07:43;9.30;;;4.47;;
69937;SDS011;57248;47.320;15.998;2023-07-02T04:10:15;11.45;;;4.78;;
69937;SDS011;57248;47.320;15.998;2023-07-02T04:12:47;7.67;;;4.27;;
69937;SDS011;57248;47.320;15.998;2023-07-02T04:15:19;7.85;;;4.60;;
69937;SDS011;57248;47.320;15.998;2023-07-02T04:17:51;13.40;;;5.10;;
69937;SDS011;57248;47.320;15.998;2023-07-02T04:20:25;11.95;;;4.72;;
69937;SDS011;57248;47.320;15.998;2023-07-02T04:22:51;8.30;;;4.53;;
69937;SDS011;57248;47.320;15.998;2023-07-02T04:25:24;9.32;;;4.75;;
69937;SDS011;57248;47.320;15.998;2023-07-02T04:27:56;8.98;;;4.25;;
69937;SDS011;57248;47.320;15.998;2023-07-02T04:30:29;9.37;;;4.40;;
69937;SDS011;57248;47.320;15.998;2023-07-02T04:33:01;8.27;;;4.55;;
69937;SDS011;57248;47.320;15.998;2023-07-02T04:35:34;9.13;;;4.63;;
69937;SDS011;57248;47.320;15.998;2023-07-02T04:38:00;10.52;;;4.35;;
69937;SDS011;57248;47.320;15.998;2023-07-02T04:40:34;8.37;;;4.70;;
69937;SDS011;57248;47.320;15.998;2023-07-02T04:43:05;10.98;;;4.88;;
69937;SDS011;57248;47.320;15.998;2023-07-02T04:45:37;7.88;;;4.80;;
69937;SDS011;57248;47.320;15.998;2023-07-02T04:48:10;6.93;;;3.83;;
69937;SDS011;57248;47.320;15.998;2023-07-02T04:50:44;10.65;;;4.57;;
69937;SDS011;57248;47.320;15.998;2023-07-02T04:53:23;7.53;;;3.90;;
69937;SDS011;57248;47.320;15.998;2023-07-02T04:55:55;9.27;;;4.60;;
69937;SDS011;57248;47.320;15.998;2023-07-02T04:58:30;9.13;;;4.15;;
69937;SDS011;57248;47.320;15.998;2023-07-02T05:01:04;21.90;;;8.23;;
69937;SDS011;57248;47.320;15.998;2023-07-02T05:03:37;7.32;;;4.68;;
69937;SDS011;57248;47.320;15.998;2023-07-02T05:06:09;7.83;;;2.90;;
69937;SDS011;57248;47.320;15.998;2023-07-02T05:08:35;6.75;;;3.10;;
69937;SDS011;57248;47.320;15.998;2023-07-02T05:11:08;6.57;;;4.00;;
69937;SDS011;57248;47.320;15.998;2023-07-02T05:13:41;7.60;;;4.43;;
69937;SDS011;57248;47.320;15.998;2023-07-02T05:16:13;8.65;;;4.30;;
69937;SDS011;57248;47.320;15.998;2023-07-02T05:18:46;6.85;;;4.20;;
69937;SDS011;57248;47.320;15.998;2023-07-02T05:21:19;6.50;;;3.95;;
69937;SDS011;57248;47.320;15.998;2023-07-02T05:23:51;6.13;;;3.40;;
69937;SDS011;57248;47.320;15.998;2023-07-02T05:26:23;8.23;;;3.90;;
69937;SDS011;57248;47.320;15.998;2023-07-02T05:28:55;4.78;;;2.40;;
69937;SDS011;57248;47.320;15.998;2023-07-02T05:31:27;5.78;;;2.78;;
69937;SDS011;57248;47.320;15.998;2023-07-02T05:33:59;3.95;;;1.67;;
69937;SDS011;57248;47.320;15.998;2023-07-02T05:36:31;3.33;;;1.70;;
69937;SDS011;57248;47.320;15.998;2023-07-02T05:39:03;4.32;;;2.10;;
69937;SDS011;57248;47.320;15.998;2023-07-02T05:41:35;4.20;;;2.10;;
69937;SDS011;57248;47.320;15.998;2023-07-02T05:44:07;5.15;;;1.98;;
69937;SDS011;57248;47.320;15.998;2023-07-02T05:46:39;5.20;;;1.63;;
69937;SDS011;57248;47.320;15.998;2023-07-02T05:49:11;5.50;;;2.03;;
69937;SDS011;57248;47.320;15.998;2023-07-02T05:51:43;4.35;;;2.03;;
69937;SDS011;57248;47.320;15.998;2023-07-02T05:54:22;5.20;;;1.75;;
69937;SDS011;57248;47.320;15.998;2023-07-02T05:56:54;4.65;;;1.58;;
69937;SDS011;57248;47.320;15.998;2023-07-02T05:59:27;3.03;;;1.17;;
69937;SDS011;57248;47.320;15.998;2023-07-02T06:02:00;3.83;;;1.33;;
69937;SDS011;57248;47.320;15.998;2023-07-02T06:04:31;5.00;;;1.70;;
69937;SDS011;57248;47.320;15.998;2023-07-02T06:07:03;3.17;;;1.23;;
69937;SDS011;57248;47.320;15.998;2023-07-02T06:09:35;4.15;;;1.15;;
69937;SDS011;57248;47.320;15.998;2023-07-02T06:12:08;3.53;;;1.33;;
69937;SDS011;57248;47.320;15.998;2023-07-02T06:14:39;4.53;;;1.60;;
69937;SDS011;57248;47.320;15.998;2023-07-02T06:17:11;3.20;;;1.20;;
69937;SDS011;57248;47.320;15.998;2023-07-02T06:19:44;4.85;;;1.63;;
69937;SDS011;57248;47.320;15.998;2023-07-02T06:22:15;5.18;;;1.73;;
69937;SDS011;57248;47.320;15.998;2023-07-02T06:24:47;3.00;;;1.30;;
69937;SDS011;57248;47.320;15.998;2023-07-02T06:27:20;7.40;;;1.80;;
69937;SDS011;57248;47.320;15.998;2023-07-02T06:29:51;3.55;;;1.45;;
69937;SDS011;57248;47.320;15.998;2023-07-02T06:32:17;5.10;;;1.80;;
69937;SDS011;57248;47.320;15.998;2023-07-02T06:34:50;40.22;;;12.60;;
69937;SDS011;57248;47.320;15.998;2023-07-02T06:37:22;4.03;;;1.88;;
69937;SDS011;57248;47.320;15.998;2023-07-02T06:39:54;5.68;;;2.38;;
69937;SDS011;57248;47.320;15.998;2023-07-02T06:42:27;3.55;;;1.90;;
69937;SDS011;57248;47.320;15.998;2023-07-02T06:45:00;5.03;;;2.40;;
69937;SDS011;57248;47.320;15.998;2023-07-02T06:47:32;52.95;;;17.52;;
69937;SDS011;57248;47.320;15.998;2023-07-02T06:50:05;11.27;;;4.60;;
69937;SDS011;57248;47.320;15.998;2023-07-02T06:52:46;4.55;;;2.13;;
69937;SDS011;57248;47.320;15.998;2023-07-02T06:55:17;4.85;;;2.30;;
69937;SDS011;57248;47.320;15.998;2023-07-02T06:57:50;4.17;;;1.63;;
69937;SDS011;57248;47.320;15.998;2023-07-02T07:00:22;3.88;;;2.40;;
69937;SDS011;57248;47.320;15.998;2023-07-02T07:02:56;4.28;;;2.50;;
69937;SDS011;57248;47.320;15.998;2023-07-02T07:05:21;3.10;;;2.00;;
69937;SDS011;57248;47.320;15.998;2023-07-02T07:07:53;4.63;;;2.00;;
69937;SDS011;57248;47.320;15.998;2023-07-02T07:10:27;3.27;;;1.87;;
69937;SDS011;57248;47.320;15.998;2023-07-02T07:13:02;3.25;;;1.77;;
69937;SDS011;57248;47.320;15.998;2023-07-02T07:15:35;3.60;;;1.80;;
69937;SDS011;57248;47.320;15.998;2023-07-02T07:18:08;4.80;;;1.55;;
69937;SDS011;57248;47.320;15.998;2023-07-02T07:20:41;2.83;;;2.17;;
69937;SDS011;57248;47.320;15.998;2023-07-02T07:23:14;3.40;;;2.80;;
69937;SDS011;57248;47.320;15.998;2023-07-02T07:25:48;3.42;;;2.83;;
69937;SDS011;57248;47.320;15.998;2023-07-02T07:28:20;3.78;;;3.33;;
69937;SDS011;57248;47.320;15.998;2023-07-02T07:30:52;6.82;;;3.80;;
69937;SDS011;57248;47.320;15.998;2023-07-02T07:33:24;5.90;;;5.30;;
69937;SDS011;57248;47.320;15.998;2023-07-02T07:35:50;6.10;;;5.63;;
69937;SDS011;57248;47.320;15.998;2023-07-02T07:38:22;4.60;;;4.07;;
69937;SDS011;57248;47.320;15.998;2023-07-02T07:40:56;4.20;;;3.90;;
69937;SDS011;57248;47.320;15.998;2023-07-02T07:43:29;3.00;;;2.70;;
69937;SDS011;57248;47.320;15.998;2023-07-02T07:46:01;3.05;;;2.45;;
69937;SDS011;57248;47.320;15.998;2023-07-02T07:48:33;3.93;;;1.77;;
69937;SDS011;57248;47.320;15.998;2023-07-02T07:51:06;2.55;;;1.70;;
69937;SDS011;57248;47.320;15.998;2023-07-02T07:53:46;3.00;;;2.00;;
69937;SDS011;57248;47.320;15.998;2023-07-02T07:56:18;2.40;;;1.70;;
69937;SDS011;57248;47.320;15.998;2023-07-02T07:58:43;3.57;;;2.00;;
69937;SDS011;57248;47.320;15.998;2023-07-02T08:01:17;2.67;;;1.92;;
69937;SDS011;57248;47.320;15.998;2023-07-02T08:03:52;2.97;;;2.22;;
69937;SDS011;57248;47.320;15.998;2023-07-02T08:06:24;3.97;;;1.70;;
69937;SDS011;57248;47.320;15.998;2023-07-02T08:08:56;2.95;;;2.00;;
69937;SDS011;57248;47.320;15.998;2023-07-02T08:11:29;5.05;;;2.50;;
69937;SDS011;57248;47.320;15.998;2023-07-02T08:14:01;2.50;;;1.90;;
69937;SDS011;57248;47.320;15.998;2023-07-02T08:16:33;2.70;;;2.40;;
69937;SDS011;57248;47.320;15.998;2023-07-02T08:19:05;4.50;;;2.43;;
69937;SDS011;57248;47.320;15.998;2023-07-02T08:21:38;2.67;;;2.30;;
69937;SDS011;57248;47.320;15.998;2023-07-02T08:24:10;5.32;;;2.72;;
69937;SDS011;57248;47.320;15.998;2023-07-02T08:26:42;3.05;;;2.42;;
69937;SDS011;57248;47.320;15.998;2023-07-02T08:29:14;3.63;;;2.40;;
69937;SDS011;57248;47.320;15.998;2023-07-02T08:31:46;2.93;;;2.00;;
69937;SDS011;57248;47.320;15.998;2023-07-02T08:34:18;2.60;;;1.98;;
69937;SDS011;57248;47.320;15.998;2023-07-02T08:36:43;4.05;;;3.75;;
69937;SDS011;57248;47.320;15.998;2023-07-02T08:39:16;6.83;;;6.30;;
69937;SDS011;57248;47.320;15.998;2023-07-02T08:41:48;7.68;;;7.18;;
69937;SDS011;57248;47.320;15.998;2023-07-02T08:44:20;9.95;;;9.30;;
69937;SDS011;57248;47.320;15.998;2023-07-02T08:46:54;4.03;;;3.72;;
69937;SDS011;57248;47.320;15.998;2023-07-02T08:49:28;4.00;;;3.45;;
69937;SDS011;57248;47.320;15.998;2023-07-02T08:52:06;2.83;;;2.30;;
69937;SDS011;57248;47.320;15.998;2023-07-02T08:54:39;2.28;;;1.90;;
69937;SDS011;57248;47.320;15.998;2023-07-02T08:57:12;3.10;;;2.80;;
69937;SDS011;57248;47.320;15.998;2023-07-02T08:59:44;7.30;;;6.80;;
69937;SDS011;57248;47.320;15.998;2023-07-02T09:02:09;10.50;;;9.90;;
69937;SDS011;57248;47.320;15.998;2023-07-02T09:04:42;13.07;;;12.27;;
69937;SDS011;57248;47.320;15.998;2023-07-02T09:07:14;10.98;;;10.27;;
69937;SDS011;57248;47.320;15.998;2023-07-02T09:09:49;16.73;;;15.75;;
69937;SDS011;57248;47.320;15.998;2023-07-02T09:12:25;16.55;;;15.45;;
69937;SDS011;57248;47.320;15.998;2023-07-02T09:14:59;16.63;;;15.73;;
69937;SDS011;57248;47.320;15.998;2023-07-02T09:17:36;19.83;;;18.73;;
69937;SDS011;57248;47.320;15.998;2023-07-02T09:20:09;24.95;;;23.55;;
69937;SDS011;57248;47.320;15.998;2023-07-02T09:22:42;17.55;;;16.55;;
69937;SDS011;57248;47.320;15.998;2023-07-02T09:25:14;10.00;;;9.40;;
69937;SDS011;57248;47.320;15.998;2023-07-02T09:27:40;7.73;;;7.23;;
69937;SDS011;57248;47.320;15.998;2023-07-02T09:30:16;5.05;;;4.65;;
69937;SDS011;57248;47.320;15.998;2023-07-02T09:32:48;4.20;;;3.80;;
69937;SDS011;57248;47.320;15.998;2023-07-02T09:35:20;3.70;;;3.40;;
69937;SDS011;57248;47.320;15.998;2023-07-02T09:37:53;4.30;;;3.90;;
69937;SDS011;57248;47.320;15.998;2023-07-02T09:40:26;4.03;;;3.65;;
69937;SDS011;57248;47.320;15.998;2023-07-02T09:43:01;4.18;;;3.53;;
69937;SDS011;57248;47.320;15.998;2023-07-02T09:45:33;4.23;;;3.83;;
69937;SDS011;57248;47.320;15.998;2023-07-02T09:48:05;5.00;;;3.40;;
69937;SDS011;57248;47.320;15.998;2023-07-02T09:50:39;3.97;;;3.33;;
69937;SDS011;57248;47.320;15.998;2023-07-02T09:53:28;3.58;;;3.10;;
69937;SDS011;57248;47.320;15.998;2023-07-02T09:56:02;4.50;;;4.10;;
69937;SDS011;57248;47.320;15.998;2023-07-02T09:58:34;3.63;;;3.33;;
69937;SDS011;57248;47.320;15.998;2023-07-02T10:01:08;4.03;;;3.08;;
69937;SDS011;57248;47.320;15.998;2023-07-02T10:03:42;4.22;;;3.13;;
69937;SDS011;57248;47.320;15.998;2023-07-02T10:06:07;3.07;;;2.60;;
69937;SDS011;57248;47.320;15.998;2023-07-02T10:08:39;4.50;;;3.45;;
69937;SDS011;57248;47.320;15.998;2023-07-02T10:11:11;3.63;;;3.15;;
69937;SDS011;57248;47.320;15.998;2023-07-02T10:13:45;3.28;;;2.92;;
69937;SDS011;57248;47.320;15.998;2023-07-02T10:16:10;3.83;;;3.03;;
69937;SDS011;57248;47.320;15.998;2023-07-02T10:18:43;4.15;;;2.90;;
69937;SDS011;57248;47.320;15.998;2023-07-02T10:21:15;2.90;;;2.55;;
69937;SDS011;57248;47.320;15.998;2023-07-02T10:23:49;3.47;;;2.83;;
69937;SDS011;57248;47.320;15.998;2023-07-02T10:26:15;4.10;;;3.25;;
69937;SDS011;57248;47.320;15.998;2023-07-02T10:28:57;3.37;;;3.00;;
69937;SDS011;57248;47.320;15.998;2023-07-02T10:31:30;5.65;;;5.25;;
69937;SDS011;57248;47.320;15.998;2023-07-02T10:33:55;4.93;;;4.53;;
69937;SDS011;57248;47.320;15.998;2023-07-02T10:36:28;7.90;;;7.30;;
69937;SDS011;57248;47.320;15.998;2023-07-02T10:39:02;6.93;;;6.43;;
69937;SDS011;57248;47.320;15.998;2023-07-02T10:41:38;6.68;;;6.07;;
69937;SDS011;57248;47.320;15.998;2023-07-02T10:44:10;6.07;;;5.57;;
69937;SDS011;57248;47.320;15.998;2023-07-02T10:46:45;5.32;;;4.93;;
69937;SDS011;57248;47.320;15.998;2023-07-02T10:49:20;6.57;;;4.97;;
69937;SDS011;57248;47.320;15.998;2023-07-02T10:52:01;5.45;;;5.05;;
69937;SDS011;57248;47.320;15.998;2023-07-02T10:54:45;6.07;;;4.82;;
69937;SDS011;57248;47.320;15.998;2023-07-02T10:57:19;5.40;;;4.90;;
69937;SDS011;57248;47.320;15.998;2023-07-02T11:00:02;5.68;;;5.18;;
69937;SDS011;57248;47.320;15.998;2023-07-02T11:02:40;8.40;;;7.80;;
69937;SDS011;57248;47.320;15.998;2023-07-02T11:05:13;6.57;;;6.07;;
69937;SDS011;57248;47.320;15.998;2023-07-02T11:07:46;5.50;;;5.10;;
69937;SDS011;57248;47.320;15.998;2023-07-02T11:10:18;4.60;;;4.20;;
69937;SDS011;57248;47.320;15.998;2023-07-02T11:12:51;7.63;;;7.13;;
69937;SDS011;57248;47.320;15.998;2023-07-02T11:15:23;10.87;;;10.17;;
69937;SDS011;57248;47.320;15.998;2023-07-02T11:17:55;8.32;;;7.72;;
69937;SDS011;57248;47.320;15.998;2023-07-02T11:20:20;7.87;;;7.37;;
69937;SDS011;57248;47.320;15.998;2023-07-02T11:22:52;5.40;;;5.00;;
69937;SDS011;57248;47.320;15.998;2023-07-02T11:25:24;6.30;;;5.88;;
69937;SDS011;57248;47.320;15.998;2023-07-02T11:28:05;6.75;;;6.25;;
69937;SDS011;57248;47.320;15.998;2023-07-02T11:30:44;7.57;;;7.07;;
69937;SDS011;57248;47.320;15.998;2023-07-02T11:33:18;6.20;;;5.70;;
69937;SDS011;57248;47.320;15.998;2023-07-02T11:35:51;6.47;;;5.82;;
69937;SDS011;57248;47.320;15.998;2023-07-02T11:38:23;6.47;;;5.97;;
69937;SDS011;57248;47.320;15.998;2023-07-02T11:40:48;7.20;;;6.70;;
69937;SDS011;57248;47.320;15.998;2023-07-02T11:43:20;7.28;;;6.78;;
69937;SDS011;57248;47.320;15.998;2023-07-02T11:45:52;5.60;;;5.15;;
69937;SDS011;57248;47.320;15.998;2023-07-02T11:48:24;4.40;;;4.03;;
69937;SDS011;57248;47.320;15.998;2023-07-02T11:50:56;6.27;;;5.80;;
69937;SDS011;57248;47.320;15.998;2023-07-02T11:53:35;9.10;;;8.50;;
69937;SDS011;57248;47.320;15.998;2023-07-02T11:56:07;9.90;;;9.30;;
69937;SDS011;57248;47.320;15.998;2023-07-02T11:58:39;11.68;;;10.98;;
69937;SDS011;57248;47.320;15.998;2023-07-02T12:01:19;9.60;;;9.00;;
69937;SDS011;57248;47.320;15.998;2023-07-02T12:03:51;11.30;;;10.60;;
69937;SDS011;57248;47.320;15.998;2023-07-02T12:06:23;12.95;;;12.15;;
69937;SDS011;57248;47.320;15.998;2023-07-02T12:08:48;12.70;;;12.00;;
69937;SDS011;57248;47.320;15.998;2023-07-02T12:11:20;6.97;;;6.47;;
69937;SDS011;57248;47.320;15.998;2023-07-02T12:13:52;4.50;;;4.10;;
69937;SDS011;57248;47.320;15.998;2023-07-02T12:16:24;3.83;;;3.53;;
69937;SDS011;57248;47.320;15.998;2023-07-02T12:18:56;5.90;;;5.43;;
69937;SDS011;57248;47.320;15.998;2023-07-02T12:21:29;4.95;;;4.55;;
69937;SDS011;57248;47.320;15.998;2023-07-02T12:24:02;4.13;;;3.83;;
69937;SDS011;57248;47.320;15.998;2023-07-02T12:26:39;6.82;;;6.32;;
69937;SDS011;57248;47.320;15.998;2023-07-02T12:29:14;10.60;;;10.00;;
69937;SDS011;57248;47.320;15.998;2023-07-02T12:31:46;12.15;;;11.35;;
69937;SDS011;57248;47.320;15.998;2023-07-02T12:34:18;11.43;;;10.73;;
69937;SDS011;57248;47.320;15.998;2023-07-02T12:36:51;11.47;;;10.77;;
69937;SDS011;57248;47.320;15.998;2023-07-02T12:39:24;7.82;;;7.32;;
69937;SDS011;57248;47.320;15.998;2023-07-02T12:41:56;9.13;;;8.32;;
69937;SDS011;57248;47.320;15.998;2023-07-02T12:44:29;10.50;;;9.90;;
69937;SDS011;57248;47.320;15.998;2023-07-02T12:47:01;7.00;;;6.50;;
69937;SDS011;57248;47.320;15.998;2023-07-02T12:49:26;6.13;;;5.73;;
69937;SDS011;57248;47.320;15.998;2023-07-02T12:51:58;6.32;;;5.82;;
69937;SDS011;57248;47.320;15.998;2023-07-02T12:54:31;4.17;;;3.87;;
69937;SDS011;57248;47.320;15.998;2023-07-02T12:57:03;3.72;;;3.42;;
69937;SDS011;57248;47.320;15.998;2023-07-02T12:59:35;3.60;;;3.30;;
69937;SDS011;57248;47.320;15.998;2023-07-02T13:02:07;59.75;;;25.30;;
69937;SDS011;57248;47.320;15.998;2023-07-02T13:04:39;8.27;;;4.88;;
69937;SDS011;57248;47.320;15.998;2023-07-02T13:07:11;5.43;;;3.57;;
69937;SDS011;57248;47.320;15.998;2023-07-02T13:09:43;7.75;;;7.25;;
69937;SDS011;57248;47.320;15.998;2023-07-02T13:12:15;10.45;;;9.85;;
69937;SDS011;57248;47.320;15.998;2023-07-02T13:14:47;5.15;;;4.75;;
69937;SDS011;57248;47.320;15.998;2023-07-02T13:17:19;3.67;;;3.38;;
69937;SDS011;57248;47.320;15.998;2023-07-02T13:19:51;3.90;;;3.50;;
69937;SDS011;57248;47.320;15.998;2023-07-02T13:22:23;3.20;;;2.90;;
69937;SDS011;57248;47.320;15.998;2023-07-02T13:24:56;3.08;;;2.78;;
69937;SDS011;57248;47.320;15.998;2023-07-02T13:27:30;3.70;;;3.33;;
69937;SDS011;57248;47.320;15.998;2023-07-02T13:30:02;3.22;;;2.63;;
69937;SDS011;57248;47.320;15.998;2023-07-02T13:32:34;2.50;;;2.27;;
69937;SDS011;57248;47.320;15.998;2023-07-02T13:35:07;2.88;;;2.00;;
69937;SDS011;57248;47.320;15.998;2023-07-02T13:37:40;4.50;;;4.10;;
69937;SDS011;57248;47.320;15.998;2023-07-02T13:40:12;4.47;;;4.07;;
69937;SDS011;57248;47.320;15.998;2023-07-02T13:42:45;8.68;;;8.07;;
69937;SDS011;57248;47.320;15.998;2023-07-02T13:45:17;5.30;;;4.90;;
69937;SDS011;57248;47.320;15.998;2023-07-02T13:47:57;4.13;;;3.83;;
69937;SDS011;57248;47.320;15.998;2023-07-02T13:50:44;3.85;;;2.80;;
69937;SDS011;57248;47.320;15.998;2023-07-02T13:53:16;2.70;;;2.38;;
69937;SDS011;57248;47.320;15.998;2023-07-02T13:55:48;3.13;;;1.77;;
69937;SDS011;57248;47.320;15.998;2023-07-02T13:58:22;2.77;;;1.90;;
69937;SDS011;57248;47.320;15.998;2023-07-02T14:00:55;2.05;;;1.45;;
69937;SDS011;57248;47.320;15.998;2023-07-02T14:03:27;3.30;;;1.80;;
69937;SDS011;57248;47.320;15.998;2023-07-02T14:05:59;2.90;;;1.67;;
69937;SDS011;57248;47.320;15.998;2023-07-02T14:08:32;2.45;;;1.70;;
69937;SDS011;57248;47.320;15.998;2023-07-02T14:11:04;2.30;;;1.60;;
69937;SDS011;57248;47.320;15.998;2023-07-02T14:13:36;2.40;;;1.75;;
69937;SDS011;57248;47.320;15.998;2023-07-02T14:16:08;2.45;;;1.50;;
69937;SDS011;57248;47.320;15.998;2023-07-02T14:18:40;2.13;;;1.40;;
69937;SDS011;57248;47.320;15.998;2023-07-02T14:21:12;2.38;;;1.50;;
69937;SDS011;57248;47.320;15.998;2023-07-02T14:23:44;2.37;;;1.60;;
69937;SDS011;57248;47.320;15.998;2023-07-02T14:26:16;3.10;;;1.80;;
69937;SDS011;57248;47.320;15.998;2023-07-02T14:28:48;2.38;;;1.50;;
69937;SDS011;57248;47.320;15.998;2023-07-02T14:31:20;2.50;;;1.80;;
69937;SDS011;57248;47.320;15.998;2023-07-02T14:33:53;2.45;;;1.95;;
69937;SDS011;57248;47.320;15.998;2023-07-02T14:36:26;2.60;;;1.97;;
69937;SDS011;57248;47.320;15.998;2023-07-02T14:38:58;2.80;;;2.45;;
69937;SDS011;57248;47.320;15.998;2023-07-02T14:41:30;5.20;;;4.70;;
69937;SDS011;57248;47.320;15.998;2023-07-02T14:44:07;4.80;;;4.40;;
69937;SDS011;57248;47.320;15.998;2023-07-02T14:46:39;4.75;;;3.45;;
69937;SDS011;57248;47.320;15.998;2023-07-02T14:49:14;5.00;;;4.60;;
69937;SDS011;57248;47.320;15.998;2023-07-02T14:51:46;5.85;;;5.35;;
69937;SDS011;57248;47.320;15.998;2023-07-02T14:54:33;4.85;;;4.45;;
69937;SDS011;57248;47.320;15.998;2023-07-02T14:57:06;5.68;;;5.18;;
69937;SDS011;57248;47.320;15.998;2023-07-02T14:59:38;3.50;;;2.97;;
69937;SDS011;57248;47.320;15.998;2023-07-02T15:02:11;3.67;;;2.70;;